createdAt,value
2022-12-24T00:00:47.825Z,10.10
2022-12-24T00:01:49.661Z,10.10
2022-12-24T00:02:51.598Z,10.10
2022-12-24T00:03:53.722Z,10.20
2022-12-24T00:05:00.592Z,10.20
2022-12-24T00:06:17.697Z,10.20
2022-12-24T00:07:19.454Z,10.20
2022-12-24T00:08:21.467Z,10.20
2022-12-24T00:09:23.471Z,10.20
2022-12-24T00:10:25.206Z,10.20
2022-12-24T00:11:27.052Z,10.30
2022-12-24T00:12:28.875Z,10.40
2022-12-24T00:13:30.672Z,10.40
2022-12-24T00:14:33.033Z,10.40
2022-12-24T00:15:34.878Z,10.50
2022-12-24T00:16:36.861Z,10.50
2022-12-24T00:17:38.708Z,10.50
2022-12-24T00:18:45.880Z,10.50
2022-12-24T00:19:47.918Z,10.50
2022-12-24T00:20:50.262Z,10.50
2022-12-24T00:21:52.129Z,10.50
2022-12-24T00:22:53.962Z,10.50
2022-12-24T00:23:55.824Z,10.50
2022-12-24T00:24:57.664Z,10.50
2022-12-24T00:25:59.410Z,10.50
2022-12-24T00:27:01.271Z,10.50
2022-12-24T00:28:03.122Z,10.60
2022-12-24T00:29:05.064Z,10.60
2022-12-24T00:30:07.928Z,10.60
2022-12-24T00:31:16.404Z,10.60
2022-12-24T00:32:18.295Z,10.70
2022-12-24T00:33:24.469Z,10.70
2022-12-24T00:34:26.808Z,10.70
2022-12-24T00:35:29.585Z,10.70
2022-12-24T00:36:31.438Z,10.70
2022-12-24T00:37:33.287Z,10.70
2022-12-24T00:38:35.460Z,10.70
2022-12-24T00:39:37.186Z,10.70
2022-12-24T00:40:39.140Z,10.70
2022-12-24T00:41:40.990Z,10.70
2022-12-24T00:42:42.862Z,10.70
2022-12-24T00:43:44.694Z,10.70
2022-12-24T00:44:46.542Z,10.70
2022-12-24T00:45:48.540Z,10.70
2022-12-24T00:46:51.059Z,10.70
2022-12-24T00:47:52.942Z,10.70
2022-12-24T00:48:54.985Z,10.70
2022-12-24T00:49:56.820Z,10.70
2022-12-24T00:50:58.708Z,10.70
2022-12-24T00:52:00.453Z,10.80
2022-12-24T00:53:02.656Z,10.80
2022-12-24T00:54:05.235Z,10.80
2022-12-24T00:55:07.837Z,10.80
2022-12-24T00:56:10.589Z,10.80
2022-12-24T00:57:12.352Z,10.80
2022-12-24T00:58:14.124Z,10.80
2022-12-24T00:59:16.078Z,10.80
2022-12-24T01:00:18.195Z,10.80
2022-12-24T01:01:20.782Z,10.80
2022-12-24T01:02:23.346Z,10.90
2022-12-24T01:03:35.416Z,10.80
2022-12-24T01:04:55.426Z,10.90
2022-12-24T01:05:57.061Z,10.90
2022-12-24T01:06:58.752Z,10.90
2022-12-24T01:08:00.443Z,10.80
2022-12-24T01:09:02.131Z,10.80
2022-12-24T01:10:05.309Z,10.80
2022-12-24T01:11:08.122Z,10.80
2022-12-24T01:12:09.784Z,10.80
2022-12-24T01:13:11.442Z,10.70
2022-12-24T01:14:13.117Z,10.70
2022-12-24T01:15:15.493Z,10.70
2022-12-24T01:16:20.369Z,10.70
2022-12-24T01:17:22.264Z,10.70
2022-12-24T01:18:24.554Z,10.70
2022-12-24T01:19:26.122Z,10.80
2022-12-24T01:20:31.503Z,10.80
2022-12-24T01:21:33.200Z,10.80
2022-12-24T01:22:35.239Z,10.80
2022-12-24T01:23:36.872Z,10.70
2022-12-24T01:24:40.054Z,10.80
2022-12-24T01:25:41.620Z,10.70
2022-12-24T01:26:43.849Z,10.70
2022-12-24T01:27:45.447Z,10.60
2022-12-24T01:28:47.264Z,10.60
2022-12-24T01:29:48.979Z,10.60
2022-12-24T01:30:50.607Z,10.60
2022-12-24T01:31:52.282Z,10.60
2022-12-24T01:32:54.129Z,10.60
2022-12-24T01:33:55.697Z,10.60
2022-12-24T01:34:57.355Z,10.50
2022-12-24T01:36:03.212Z,10.50
2022-12-24T01:37:04.818Z,10.50
2022-12-24T01:38:06.457Z,10.60
2022-12-24T01:39:08.080Z,10.50
2022-12-24T01:40:34.094Z,10.50
2022-12-24T01:41:54.553Z,10.60
2022-12-24T01:43:14.925Z,10.60
2022-12-24T01:44:36.172Z,10.60
2022-12-24T01:45:46.762Z,10.70
2022-12-24T01:46:52.062Z,10.70
2022-12-24T01:47:53.720Z,10.70
2022-12-24T01:49:04.381Z,10.70
2022-12-24T01:50:17.185Z,10.60
2022-12-24T01:51:27.619Z,10.60
2022-12-24T01:52:34.225Z,10.60
2022-12-24T01:53:39.195Z,10.60
2022-12-24T01:55:02.750Z,10.60
2022-12-24T01:56:05.759Z,10.60
2022-12-24T01:57:20.514Z,10.60
2022-12-24T01:58:25.582Z,10.50
2022-12-24T01:59:27.194Z,10.50
2022-12-24T02:00:28.917Z,10.50
2022-12-24T02:01:30.790Z,10.50
2022-12-24T02:02:33.598Z,10.50
2022-12-24T02:03:35.842Z,10.50
2022-12-24T02:04:42.502Z,10.50
2022-12-24T02:05:46.639Z,10.50
2022-12-24T02:06:48.195Z,10.50
2022-12-24T02:07:50.418Z,10.50
2022-12-24T02:08:52.083Z,10.40
2022-12-24T02:09:57.139Z,10.40
2022-12-24T02:10:58.760Z,10.30
2022-12-24T02:12:00.790Z,10.30
2022-12-24T02:13:04.788Z,10.30
2022-12-24T02:14:06.631Z,10.30
2022-12-24T02:15:10.834Z,10.20
2022-12-24T02:16:42.218Z,10.20
2022-12-24T02:18:05.589Z,10.20
2022-12-24T02:19:22.172Z,10.20
2022-12-24T02:20:56.002Z,10.20
2022-12-24T02:22:08.013Z,10.30
2022-12-24T02:23:49.702Z,10.30
2022-12-24T02:25:10.002Z,10.40
2022-12-24T02:26:29.631Z,10.40
2022-12-24T02:27:40.085Z,10.40
2022-12-24T02:29:02.126Z,10.40
2022-12-24T02:30:08.598Z,10.40
2022-12-24T02:31:24.135Z,10.50
2022-12-24T02:32:46.776Z,10.50
2022-12-24T02:34:02.117Z,10.50
2022-12-24T02:35:12.014Z,10.40
2022-12-24T02:36:22.881Z,10.50
2022-12-24T02:37:36.183Z,10.50
2022-12-24T02:38:48.836Z,10.50
2022-12-24T02:39:57.215Z,10.50
2022-12-24T02:41:05.195Z,10.40
2022-12-24T02:42:09.229Z,10.50
2022-12-24T02:43:15.340Z,10.50
2022-12-24T02:44:19.028Z,10.50
2022-12-24T02:45:28.417Z,10.50
2022-12-24T02:46:31.802Z,10.60
2022-12-24T02:47:34.498Z,10.60
2022-12-24T02:48:38.516Z,10.60
2022-12-24T02:49:44.525Z,10.60
2022-12-24T02:50:57.518Z,10.50
2022-12-24T02:51:59.151Z,10.50
2022-12-24T02:53:00.712Z,10.50
2022-12-24T02:54:02.459Z,10.60
2022-12-24T02:55:16.490Z,10.60
2022-12-24T02:56:41.490Z,10.50
2022-12-24T02:57:55.020Z,10.50
2022-12-24T02:59:18.471Z,10.50
2022-12-24T03:00:22.101Z,10.40
2022-12-24T03:01:52.485Z,10.40
2022-12-24T03:03:12.967Z,10.40
2022-12-24T03:04:52.176Z,10.40
2022-12-24T03:06:03.420Z,10.30
2022-12-24T03:07:35.278Z,10.30
2022-12-24T03:08:53.629Z,10.30
2022-12-24T03:10:26.801Z,10.30
2022-12-24T03:11:28.505Z,10.30
2022-12-24T03:12:40.122Z,10.30
2022-12-24T03:13:43.548Z,10.30
2022-12-24T03:14:47.922Z,10.30
2022-12-24T03:15:51.048Z,10.20
2022-12-24T03:16:52.882Z,10.20
2022-12-24T03:17:57.982Z,10.20
2022-12-24T03:19:00.833Z,10.20
2022-12-24T03:20:03.692Z,10.10
2022-12-24T03:21:17.952Z,10.10
2022-12-24T03:22:20.209Z,10.10
2022-12-24T03:23:21.879Z,10.10
2022-12-24T03:24:24.111Z,10.20
2022-12-24T03:25:26.964Z,10.20
2022-12-24T03:26:31.221Z,10.20
2022-12-24T03:27:35.337Z,10.10
2022-12-24T03:28:39.633Z,10.10
2022-12-24T03:29:41.722Z,10.10
2022-12-24T03:30:46.468Z,10.10
2022-12-24T03:31:51.315Z,10.10
2022-12-24T03:32:53.385Z,10.10
2022-12-24T03:33:55.083Z,10.10
2022-12-24T03:34:57.007Z,10.10
2022-12-24T03:35:58.592Z,10.20
2022-12-24T03:37:00.218Z,10.20
2022-12-24T03:38:01.901Z,10.20
2022-12-24T03:39:04.563Z,10.20
2022-12-24T03:40:07.311Z,10.20
2022-12-24T03:41:09.067Z,10.20
2022-12-24T03:42:10.652Z,10.20
2022-12-24T03:43:12.418Z,10.20
2022-12-24T03:44:14.153Z,10.20
2022-12-24T03:45:15.992Z,10.20
2022-12-24T03:46:17.629Z,10.20
2022-12-24T03:47:19.188Z,10.30
2022-12-24T03:48:20.796Z,10.20
2022-12-24T03:49:22.386Z,10.30
2022-12-24T03:50:23.951Z,10.30
2022-12-24T03:51:26.639Z,10.30
2022-12-24T03:52:28.503Z,10.30
2022-12-24T03:53:30.166Z,10.30
2022-12-24T03:54:31.771Z,10.30
2022-12-24T03:55:33.383Z,10.30
2022-12-24T03:56:35.017Z,10.30
2022-12-24T03:57:36.638Z,10.30
2022-12-24T03:58:38.248Z,10.20
2022-12-24T03:59:39.914Z,10.30
2022-12-24T04:00:41.557Z,10.30
2022-12-24T04:01:43.210Z,10.30
2022-12-24T04:02:44.919Z,10.20
2022-12-24T04:03:46.587Z,10.20
2022-12-24T04:04:48.134Z,10.20
2022-12-24T04:06:01.114Z,10.20
2022-12-24T04:07:03.290Z,10.20
2022-12-24T04:08:04.940Z,10.30
2022-12-24T04:09:06.537Z,10.30
2022-12-24T04:10:08.992Z,10.30
2022-12-24T04:11:13.032Z,10.30
2022-12-24T04:12:14.823Z,10.30
2022-12-24T04:13:16.349Z,10.40
2022-12-24T04:14:18.168Z,10.40
2022-12-24T04:15:19.783Z,10.40
2022-12-24T04:16:21.441Z,10.40
2022-12-24T04:17:23.059Z,10.40
2022-12-24T04:18:24.826Z,10.40
2022-12-24T04:19:26.491Z,10.40
2022-12-24T04:20:28.072Z,10.40
2022-12-24T04:21:29.791Z,10.30
2022-12-24T04:22:32.482Z,10.40
2022-12-24T04:23:35.908Z,10.30
2022-12-24T04:24:37.495Z,10.30
2022-12-24T04:25:39.037Z,10.30
2022-12-24T04:26:40.622Z,10.20
2022-12-24T04:27:42.169Z,10.30
2022-12-24T04:28:44.170Z,10.30
2022-12-24T04:29:45.740Z,10.20
2022-12-24T04:30:47.295Z,10.20
2022-12-24T04:31:48.951Z,10.20
2022-12-24T04:32:50.515Z,10.20
2022-12-24T04:33:53.138Z,10.20
2022-12-24T04:34:54.771Z,10.20
2022-12-24T04:36:03.647Z,10.20
2022-12-24T04:37:05.210Z,10.20
2022-12-24T04:38:07.206Z,10.20
2022-12-24T04:39:08.777Z,10.10
2022-12-24T04:40:10.732Z,10.10
2022-12-24T04:41:22.632Z,10.10
2022-12-24T04:42:25.694Z,10.10
2022-12-24T04:43:28.477Z,10.00
2022-12-24T04:44:30.022Z,10.10
2022-12-24T04:45:32.388Z,10.10
2022-12-24T04:46:35.428Z,10.10
2022-12-24T04:47:37.012Z,10.10
2022-12-24T04:48:38.667Z,10.10
2022-12-24T04:49:40.266Z,10.10
2022-12-24T04:50:41.841Z,10.10
2022-12-24T04:51:43.650Z,10.10
2022-12-24T04:52:45.244Z,10.10
2022-12-24T04:53:47.139Z,10.10
2022-12-24T04:54:48.693Z,10.10
2022-12-24T04:55:50.269Z,10.00
2022-12-24T04:56:51.830Z,10.00
2022-12-24T04:57:53.782Z,10.00
2022-12-24T04:58:56.361Z,10.00
2022-12-24T04:59:57.930Z,10.00
2022-12-24T05:01:07.333Z,10.10
2022-12-24T05:02:09.088Z,10.10
2022-12-24T05:03:10.813Z,10.10
2022-12-24T05:04:12.501Z,10.10
2022-12-24T05:05:14.107Z,10.10
2022-12-24T05:06:18.946Z,10.10
2022-12-24T05:07:20.514Z,10.10
2022-12-24T05:08:22.051Z,10.00
2022-12-24T05:09:23.595Z,10.00
2022-12-24T05:10:25.200Z,10.00
2022-12-24T05:11:27.534Z,10.10
2022-12-24T05:12:29.623Z,10.10
2022-12-24T05:13:40.411Z,10.10
2022-12-24T05:14:44.009Z,10.00
2022-12-24T05:15:45.570Z,10.00
2022-12-24T05:16:47.547Z,10.00
2022-12-24T05:17:49.165Z,9.90
2022-12-24T05:18:51.193Z,9.90
2022-12-24T05:19:52.745Z,9.90
2022-12-24T05:20:54.303Z,9.90
2022-12-24T05:22:14.305Z,9.90
2022-12-24T05:23:36.971Z,10.00
2022-12-24T05:24:57.191Z,10.00
2022-12-24T05:26:17.511Z,10.00
2022-12-24T05:27:19.348Z,10.00
2022-12-24T05:28:21.105Z,10.00
2022-12-24T05:29:22.969Z,9.90
2022-12-24T05:30:24.507Z,9.90
2022-12-24T05:31:28.252Z,9.90
2022-12-24T05:32:29.817Z,9.90
2022-12-24T05:33:31.372Z,9.90
2022-12-24T05:34:32.912Z,9.90
2022-12-24T05:35:34.602Z,9.90
2022-12-24T05:36:36.343Z,9.80
2022-12-24T05:37:38.048Z,9.80
2022-12-24T05:38:39.794Z,9.80
2022-12-24T05:39:41.356Z,9.70
2022-12-24T05:40:42.915Z,9.80
2022-12-24T05:41:44.889Z,9.80
2022-12-24T05:42:46.496Z,9.80
2022-12-24T05:43:48.115Z,9.80
2022-12-24T05:44:49.630Z,9.70
2022-12-24T05:45:51.276Z,9.70
2022-12-24T05:46:52.849Z,9.70
2022-12-24T05:47:54.791Z,9.80
2022-12-24T05:48:56.385Z,9.80
2022-12-24T05:49:57.938Z,9.80
2022-12-24T05:50:59.716Z,9.80
2022-12-24T05:52:01.249Z,9.80
2022-12-24T05:53:02.827Z,9.80
2022-12-24T05:54:04.493Z,9.70
2022-12-24T05:55:06.612Z,9.70
2022-12-24T05:56:14.315Z,9.80
2022-12-24T05:57:16.692Z,9.80
2022-12-24T05:58:18.270Z,9.80
2022-12-24T05:59:19.803Z,9.70
2022-12-24T06:00:21.517Z,9.70
2022-12-24T06:01:23.982Z,9.70
2022-12-24T06:02:25.785Z,9.70
2022-12-24T06:03:27.713Z,9.70
2022-12-24T06:04:29.637Z,9.70
2022-12-24T06:05:31.473Z,9.60
2022-12-24T06:06:33.146Z,9.70
2022-12-24T06:07:34.868Z,9.60
2022-12-24T06:08:37.770Z,9.60
2022-12-24T06:09:39.396Z,9.60
2022-12-24T06:10:40.957Z,9.60
2022-12-24T06:11:42.559Z,9.60
2022-12-24T06:12:44.106Z,9.50
2022-12-24T06:13:45.974Z,9.50
2022-12-24T06:14:47.584Z,9.40
2022-12-24T06:15:49.436Z,9.40
2022-12-24T06:16:51.494Z,9.40
2022-12-24T06:17:53.044Z,9.40
2022-12-24T06:18:54.689Z,9.50
2022-12-24T06:19:56.220Z,9.50
2022-12-24T06:20:58.424Z,9.50
2022-12-24T06:21:59.978Z,9.50
2022-12-24T06:23:01.510Z,9.50
2022-12-24T06:24:03.279Z,9.50
2022-12-24T06:25:05.433Z,9.50
2022-12-24T06:26:07.947Z,9.40
2022-12-24T06:27:09.513Z,9.50
2022-12-24T06:28:11.064Z,9.50
2022-12-24T06:29:12.655Z,9.40
2022-12-24T06:30:14.400Z,9.40
2022-12-24T06:31:18.872Z,9.40
2022-12-24T06:32:20.644Z,9.40
2022-12-24T06:33:22.266Z,9.30
2022-12-24T06:34:23.835Z,9.40
2022-12-24T06:35:25.477Z,9.30
2022-12-24T06:36:27.160Z,9.30
2022-12-24T06:37:29.513Z,9.30
2022-12-24T06:38:31.343Z,9.30
2022-12-24T06:39:32.949Z,9.30
2022-12-24T06:40:34.475Z,9.30
2022-12-24T06:41:36.057Z,9.20
2022-12-24T06:42:37.588Z,9.20
2022-12-24T06:43:39.166Z,9.20
2022-12-24T06:44:40.750Z,9.20
2022-12-24T06:45:46.964Z,9.20
2022-12-24T06:46:48.720Z,9.20
2022-12-24T06:47:50.339Z,9.20
2022-12-24T06:48:51.929Z,9.20
2022-12-24T06:49:53.874Z,9.20
2022-12-24T06:50:55.476Z,9.20
2022-12-24T06:51:57.076Z,9.20
2022-12-24T06:52:58.618Z,9.20
2022-12-24T06:54:00.175Z,9.20
2022-12-24T06:55:02.502Z,9.10
2022-12-24T06:56:12.368Z,9.10
2022-12-24T06:57:13.934Z,9.10
2022-12-24T06:58:15.480Z,9.20
2022-12-24T06:59:17.005Z,9.20
2022-12-24T07:00:18.916Z,9.20
2022-12-24T07:01:21.526Z,9.20
2022-12-24T07:02:24.166Z,9.20
2022-12-24T07:03:25.898Z,9.20
2022-12-24T07:04:27.530Z,9.20
2022-12-24T07:05:29.699Z,9.20
2022-12-24T07:06:31.415Z,9.10
2022-12-24T07:07:33.037Z,9.20
2022-12-24T07:08:36.172Z,9.20
2022-12-24T07:09:37.844Z,9.30
2022-12-24T07:10:39.488Z,9.20
2022-12-24T07:11:41.388Z,9.30
2022-12-24T07:12:43.554Z,9.30
2022-12-24T07:13:46.523Z,9.40
2022-12-24T07:14:48.147Z,9.40
2022-12-24T07:16:05.107Z,9.30
2022-12-24T07:17:06.909Z,9.40
2022-12-24T07:18:08.603Z,9.40
2022-12-24T07:19:10.196Z,9.40
2022-12-24T07:20:17.278Z,9.30
2022-12-24T07:21:18.934Z,9.30
2022-12-24T07:22:20.613Z,9.30
2022-12-24T07:23:22.268Z,9.30
2022-12-24T07:24:23.961Z,9.30
2022-12-24T07:25:25.603Z,9.30
2022-12-24T07:26:27.294Z,9.30
2022-12-24T07:27:28.904Z,9.30
2022-12-24T07:28:31.063Z,9.30
2022-12-24T07:29:32.639Z,9.30
2022-12-24T07:30:34.598Z,9.30
2022-12-24T07:31:36.365Z,9.30
2022-12-24T07:32:38.115Z,9.20
2022-12-24T07:33:39.787Z,9.20
2022-12-24T07:34:41.595Z,9.20
2022-12-24T07:35:43.285Z,9.20
2022-12-24T07:36:45.071Z,9.10
2022-12-24T07:37:46.642Z,9.10
2022-12-24T07:38:48.654Z,9.10
2022-12-24T07:39:50.394Z,9.10
2022-12-24T07:40:52.015Z,9.00
2022-12-24T07:41:53.729Z,8.90
2022-12-24T07:42:55.435Z,8.90
2022-12-24T07:43:57.137Z,8.90
2022-12-24T07:44:58.750Z,8.90
2022-12-24T07:46:00.493Z,8.90
2022-12-24T07:47:02.413Z,8.90
2022-12-24T07:48:04.655Z,8.90
2022-12-24T07:49:06.425Z,8.80
2022-12-24T07:50:08.996Z,8.80
2022-12-24T07:51:10.660Z,8.80
2022-12-24T07:52:12.789Z,8.80
2022-12-24T07:53:14.411Z,8.70
2022-12-24T07:54:16.074Z,8.70
2022-12-24T07:55:17.737Z,8.70
2022-12-24T07:56:19.374Z,8.70
2022-12-24T07:57:20.943Z,8.70
2022-12-24T07:58:22.973Z,8.70
2022-12-24T07:59:24.678Z,8.70
2022-12-24T08:00:26.220Z,8.80
2022-12-24T08:01:27.857Z,8.80
2022-12-24T08:02:29.780Z,8.80
2022-12-24T08:03:31.627Z,8.80
2022-12-24T08:04:36.260Z,8.80
2022-12-24T08:05:37.910Z,8.80
2022-12-24T08:06:39.734Z,8.80
2022-12-24T08:07:41.327Z,8.80
2022-12-24T08:08:43.087Z,8.80
2022-12-24T08:09:45.956Z,8.80
2022-12-24T08:10:47.672Z,8.70
2022-12-24T08:11:52.253Z,8.80
2022-12-24T08:12:54.265Z,8.80
2022-12-24T08:13:56.079Z,8.70
2022-12-24T08:14:57.683Z,8.80
2022-12-24T08:15:59.449Z,8.80
2022-12-24T08:17:01.157Z,8.80
2022-12-24T08:18:02.851Z,8.80
2022-12-24T08:19:04.461Z,8.80
2022-12-24T08:20:06.711Z,8.70
2022-12-24T08:21:09.326Z,8.70
2022-12-24T08:22:11.046Z,8.70
2022-12-24T08:23:12.824Z,8.70
2022-12-24T08:24:14.417Z,8.70
2022-12-24T08:25:16.040Z,8.80
2022-12-24T08:26:17.639Z,8.80
2022-12-24T08:27:19.203Z,8.80
2022-12-24T08:28:21.311Z,8.90
2022-12-24T08:29:22.910Z,8.90
2022-12-24T08:30:24.477Z,8.80
2022-12-24T08:31:26.067Z,8.80
2022-12-24T08:32:27.677Z,8.80
2022-12-24T08:33:29.299Z,8.80
2022-12-24T08:34:30.872Z,8.90
2022-12-24T08:35:32.463Z,8.90
2022-12-24T08:36:34.672Z,8.80
2022-12-24T08:37:36.278Z,8.80
2022-12-24T08:38:37.887Z,8.70
2022-12-24T08:39:39.435Z,8.80
2022-12-24T08:40:41.009Z,8.80
2022-12-24T08:41:42.603Z,8.80
2022-12-24T08:42:44.422Z,8.80
2022-12-24T08:43:46.067Z,8.80
2022-12-24T08:44:47.656Z,8.80
2022-12-24T08:45:50.193Z,8.80
2022-12-24T08:46:52.005Z,8.80
2022-12-24T08:47:53.542Z,8.80
2022-12-24T08:48:55.171Z,8.80
2022-12-24T08:49:56.738Z,8.80
2022-12-24T08:50:58.784Z,8.80
2022-12-24T08:52:00.376Z,8.90
2022-12-24T08:53:01.967Z,8.90
2022-12-24T08:54:03.877Z,8.90
2022-12-24T08:55:06.016Z,8.90
2022-12-24T08:56:09.524Z,8.90
2022-12-24T08:57:11.171Z,8.90
2022-12-24T08:58:12.740Z,8.90
2022-12-24T08:59:14.322Z,8.90
2022-12-24T09:00:16.300Z,8.90
2022-12-24T09:01:19.594Z,8.90
2022-12-24T09:02:21.661Z,9.00
2022-12-24T09:03:27.562Z,9.00
2022-12-24T09:04:29.754Z,9.00
2022-12-24T09:05:31.733Z,9.00
2022-12-24T09:06:33.723Z,9.00
2022-12-24T09:07:35.862Z,9.10
2022-12-24T09:08:37.839Z,9.10
2022-12-24T09:09:39.427Z,9.10
2022-12-24T09:10:41.007Z,9.10
2022-12-24T09:11:42.769Z,9.10
2022-12-24T09:12:44.367Z,9.10
2022-12-24T09:13:46.653Z,9.20
2022-12-24T09:14:50.251Z,9.20
2022-12-24T09:15:55.172Z,9.20
2022-12-24T09:16:56.840Z,9.10
2022-12-24T09:17:58.477Z,9.20
2022-12-24T09:19:00.145Z,9.20
2022-12-24T09:20:02.197Z,9.20
2022-12-24T09:21:06.306Z,9.20
2022-12-24T09:22:08.104Z,9.10
2022-12-24T09:23:09.722Z,9.20
2022-12-24T09:24:11.312Z,9.10
2022-12-24T09:25:13.125Z,9.10
2022-12-24T09:26:23.941Z,9.10
2022-12-24T09:27:25.504Z,9.10
2022-12-24T09:28:27.080Z,9.10
2022-12-24T09:29:28.908Z,9.20
2022-12-24T09:30:30.554Z,9.20
2022-12-24T09:31:32.185Z,9.20
2022-12-24T09:32:34.459Z,9.20
2022-12-24T09:33:38.240Z,9.30
2022-12-24T09:34:40.254Z,9.30
2022-12-24T09:35:41.916Z,9.30
2022-12-24T09:36:43.567Z,9.30
2022-12-24T09:37:45.229Z,9.30
2022-12-24T09:38:47.571Z,9.40
2022-12-24T09:39:49.209Z,9.30
2022-12-24T09:40:52.064Z,9.40
2022-12-24T09:42:11.572Z,9.40
2022-12-24T09:43:19.804Z,9.40
2022-12-24T09:44:58.512Z,9.40
2022-12-24T09:46:09.538Z,9.40
2022-12-24T09:47:27.261Z,9.30
2022-12-24T09:48:31.218Z,9.40
2022-12-24T09:49:42.561Z,9.40
2022-12-24T09:51:11.945Z,9.40
2022-12-24T09:52:21.618Z,9.40
2022-12-24T09:53:26.238Z,9.40
2022-12-24T09:54:35.292Z,9.40
2022-12-24T09:55:44.041Z,9.50
2022-12-24T09:56:47.962Z,9.40
2022-12-24T09:57:51.688Z,9.50
2022-12-24T09:59:01.124Z,9.50
2022-12-24T10:00:04.071Z,9.50
2022-12-24T10:01:05.884Z,9.50
2022-12-24T10:02:25.964Z,9.50
2022-12-24T10:03:28.017Z,9.50
2022-12-24T10:04:31.634Z,9.50
2022-12-24T10:05:43.762Z,9.50
2022-12-24T10:07:23.370Z,9.60
2022-12-24T10:08:46.088Z,9.60
2022-12-24T10:09:59.187Z,9.60
2022-12-24T10:11:10.588Z,9.70
2022-12-24T10:12:33.212Z,9.60
2022-12-24T10:14:00.601Z,9.60
2022-12-24T10:15:28.837Z,9.60
2022-12-24T10:17:03.271Z,9.70
2022-12-24T10:18:23.419Z,9.70
2022-12-24T10:19:43.499Z,9.60
2022-12-24T10:21:10.599Z,9.70
2022-12-24T10:22:24.977Z,9.70
2022-12-24T10:23:52.701Z,9.70
2022-12-24T10:25:19.568Z,9.70
2022-12-24T10:26:30.426Z,9.80
2022-12-24T10:27:40.327Z,9.80
2022-12-24T10:28:52.039Z,9.80
2022-12-24T10:30:01.621Z,9.80
2022-12-24T10:31:07.344Z,9.80
2022-12-24T10:32:08.984Z,9.80
2022-12-24T10:33:22.544Z,9.80
2022-12-24T10:34:28.654Z,9.80
2022-12-24T10:35:36.785Z,9.80
2022-12-24T10:36:38.442Z,9.90
2022-12-24T10:37:42.165Z,9.90
2022-12-24T10:38:44.693Z,9.90
2022-12-24T10:39:46.387Z,9.90
2022-12-24T10:40:51.801Z,9.90
2022-12-24T10:41:57.615Z,9.90
2022-12-24T10:42:59.314Z,9.90
2022-12-24T10:44:01.496Z,9.90
2022-12-24T10:45:05.910Z,9.90
2022-12-24T10:46:24.398Z,9.90
2022-12-24T10:47:27.494Z,9.90
2022-12-24T10:48:46.471Z,9.90
2022-12-24T10:50:02.194Z,9.90
2022-12-24T10:51:08.109Z,9.90
2022-12-24T10:52:13.332Z,10.00
2022-12-24T10:53:21.395Z,10.00
2022-12-24T10:54:27.855Z,10.00
2022-12-24T10:55:29.868Z,10.10
2022-12-24T10:56:31.539Z,10.10
2022-12-24T10:57:34.245Z,10.20
2022-12-24T10:58:36.812Z,10.20
2022-12-24T10:59:49.402Z,10.10
2022-12-24T11:00:53.364Z,10.10
2022-12-24T11:01:57.373Z,10.20
2022-12-24T11:03:12.881Z,10.10
2022-12-24T11:04:21.227Z,10.10
2022-12-24T11:05:31.983Z,10.10
2022-12-24T11:06:34.055Z,10.10
2022-12-24T11:07:35.996Z,10.10
2022-12-24T11:08:40.746Z,10.10
2022-12-24T11:09:43.518Z,10.20
2022-12-24T11:10:56.155Z,10.10
2022-12-24T11:12:05.228Z,10.10
2022-12-24T11:13:38.525Z,10.10
2022-12-24T11:14:41.082Z,10.10
2022-12-24T11:15:42.889Z,10.10
2022-12-24T11:16:57.708Z,10.10
2022-12-24T11:18:15.056Z,10.20
2022-12-24T11:19:37.035Z,10.20
2022-12-24T11:20:39.699Z,10.20
2022-12-24T11:21:42.235Z,10.20
2022-12-24T11:22:49.816Z,10.20
2022-12-24T11:23:57.294Z,10.10
2022-12-24T11:25:07.253Z,10.20
2022-12-24T11:26:08.922Z,10.20
2022-12-24T11:27:39.593Z,10.20
2022-12-24T11:28:41.366Z,10.20
2022-12-24T11:29:43.127Z,10.30
2022-12-24T11:30:56.719Z,10.30
2022-12-24T11:32:22.570Z,10.30
2022-12-24T11:33:24.439Z,10.30
2022-12-24T11:34:32.556Z,10.40
2022-12-24T11:35:39.298Z,10.40
2022-12-24T11:36:40.969Z,10.40
2022-12-24T11:37:43.324Z,10.40
2022-12-24T11:38:54.329Z,10.40
2022-12-24T11:40:00.919Z,10.50
2022-12-24T11:41:12.078Z,10.50
2022-12-24T11:42:41.917Z,10.70
2022-12-24T11:43:49.089Z,10.80
2022-12-24T11:45:14.457Z,10.90
2022-12-24T11:46:41.746Z,11.10
2022-12-24T11:47:58.051Z,11.20
2022-12-24T11:49:12.056Z,11.30
2022-12-24T11:50:39.814Z,11.20
2022-12-24T12:02:57.157Z,10.80
2022-12-24T12:04:04.338Z,10.80
2022-12-24T12:05:13.612Z,10.90
2022-12-24T12:06:31.312Z,10.80
2022-12-24T12:07:39.054Z,10.80
2022-12-24T12:08:42.305Z,10.80
2022-12-24T12:09:56.753Z,10.80
2022-12-24T12:11:00.342Z,10.80
2022-12-24T12:12:30.491Z,10.80
2022-12-24T12:13:34.010Z,10.80
2022-12-24T12:14:41.446Z,10.80
2022-12-24T12:15:55.998Z,10.90
2022-12-24T12:17:04.190Z,10.90
2022-12-24T12:18:16.569Z,10.90
2022-12-24T12:19:21.836Z,11.00
2022-12-24T12:21:00.773Z,11.00
2022-12-24T12:22:06.627Z,11.00
2022-12-24T12:23:44.499Z,11.00
2022-12-24T12:24:51.979Z,10.90
2022-12-24T12:25:59.024Z,10.90
2022-12-24T12:27:27.559Z,10.90
2022-12-24T12:28:38.479Z,10.90
2022-12-24T12:29:46.723Z,11.00
2022-12-24T12:31:10.419Z,11.00
2022-12-24T12:32:25.721Z,11.00
2022-12-24T12:33:38.998Z,11.10
2022-12-24T12:34:46.299Z,11.10
2022-12-24T12:35:50.674Z,11.10
2022-12-24T12:36:57.448Z,11.10
2022-12-24T12:38:03.803Z,11.10
2022-12-24T12:39:06.102Z,11.10
2022-12-24T12:40:18.046Z,11.10
2022-12-24T12:41:34.792Z,11.20
2022-12-24T12:42:39.617Z,11.20
2022-12-24T12:44:31.512Z,11.20
2022-12-24T12:45:44.119Z,11.30
2022-12-24T12:47:14.246Z,11.30
2022-12-24T12:48:22.860Z,11.30
2022-12-24T12:49:40.757Z,11.30
2022-12-24T12:50:52.505Z,11.20
2022-12-24T12:52:17.052Z,11.20
2022-12-24T12:53:39.957Z,11.20
2022-12-24T12:54:55.688Z,11.20
2022-12-24T12:56:06.726Z,11.20
2022-12-24T12:57:12.713Z,11.20
2022-12-24T12:58:36.256Z,11.20
2022-12-24T12:59:40.519Z,11.30
2022-12-24T13:00:45.482Z,11.30
2022-12-24T13:02:01.492Z,11.40
2022-12-24T13:03:35.382Z,11.40
2022-12-24T13:04:52.408Z,11.40
2022-12-24T13:06:29.661Z,11.40
2022-12-24T13:08:08.341Z,11.50
2022-12-24T13:09:23.869Z,11.50
2022-12-24T13:10:58.771Z,11.50
2022-12-24T13:12:14.999Z,11.50
2022-12-24T13:13:34.288Z,11.40
2022-12-24T13:14:48.972Z,11.40
2022-12-24T13:16:20.504Z,11.40
2022-12-24T13:18:02.975Z,11.40
2022-12-24T13:19:38.450Z,11.40
2022-12-24T13:20:48.353Z,11.20
2022-12-24T13:21:53.324Z,11.20
2022-12-24T13:23:13.578Z,11.20
2022-12-24T13:24:27.948Z,11.20
2022-12-24T13:25:31.732Z,11.20
2022-12-24T13:26:33.592Z,11.20
2022-12-24T13:27:35.579Z,11.20
2022-12-24T13:28:37.346Z,11.20
2022-12-24T13:29:59.940Z,11.30
2022-12-24T13:31:19.889Z,11.20
2022-12-24T13:32:21.719Z,11.20
2022-12-24T13:33:35.679Z,11.20
2022-12-24T13:34:38.120Z,11.20
2022-12-24T13:36:01.155Z,11.20
2022-12-24T13:37:18.904Z,11.10
2022-12-24T13:38:31.081Z,11.10
2022-12-24T13:40:01.455Z,11.10
2022-12-24T13:41:39.515Z,11.10
2022-12-24T13:43:04.629Z,11.10
2022-12-24T13:44:15.259Z,11.20
2022-12-24T13:45:29.199Z,11.10
2022-12-24T13:47:00.177Z,11.10
2022-12-24T13:48:07.750Z,11.10
2022-12-24T13:49:18.053Z,11.10
2022-12-24T13:50:37.684Z,11.10
2022-12-24T13:51:40.335Z,11.20
2022-12-24T13:52:52.315Z,11.10
2022-12-24T13:53:59.633Z,11.10
2022-12-24T13:55:06.524Z,11.10
2022-12-24T13:56:18.947Z,11.10
2022-12-24T13:57:39.831Z,11.10
2022-12-24T13:58:45.244Z,11.10
2022-12-24T13:59:47.074Z,11.10
2022-12-24T14:00:58.978Z,11.20
2022-12-24T14:02:01.151Z,11.20
2022-12-24T14:03:21.505Z,11.20
2022-12-24T14:04:27.630Z,11.20
2022-12-24T14:05:40.600Z,11.20
2022-12-24T14:06:42.539Z,11.10
2022-12-24T14:07:50.259Z,11.10
2022-12-24T14:08:55.542Z,11.10
2022-12-24T14:09:58.437Z,11.10
2022-12-24T14:11:18.151Z,11.10
2022-12-24T14:12:49.247Z,11.10
2022-12-24T14:13:52.724Z,11.10
2022-12-24T14:14:54.347Z,11.10
2022-12-24T14:15:55.953Z,11.10
2022-12-24T14:17:00.017Z,11.10
2022-12-24T14:18:02.064Z,11.10
2022-12-24T14:19:15.753Z,11.10
2022-12-24T14:20:17.479Z,11.10
2022-12-24T14:21:25.713Z,11.10
2022-12-24T14:22:45.161Z,11.10
2022-12-24T14:24:06.847Z,11.10
2022-12-24T14:25:22.413Z,11.00
2022-12-24T14:26:30.009Z,11.00
2022-12-24T14:27:53.413Z,11.00
2022-12-24T14:29:02.056Z,11.00
2022-12-24T14:30:21.001Z,11.00
2022-12-24T14:31:23.109Z,11.00
2022-12-24T14:32:24.688Z,11.00
2022-12-24T14:33:31.339Z,11.10
2022-12-24T14:34:33.020Z,11.00
2022-12-24T14:35:39.522Z,11.10
2022-12-24T14:36:44.306Z,11.10
2022-12-24T14:37:49.032Z,11.10
2022-12-24T14:38:51.008Z,11.10